Terminal Aerodrome Forecast
Issued by NWS

Home | Current Version | Previous Version | Text Only | Print | Product List | Glossary On
Versions: 1 2 3 4 5 6 7 8 9 10 11 12 13 14 15 16 17 18 19
000
FTUS42 KMLB 230700 AAA
TAFLEE
TAF AMD
KLEE 230800Z 2308/2406 13009KT P6SM -DZ SCT015 BKN030 OVC050
      WS010/14035KT
      TEMPO 2308/2312 3SM -RA BR BKN015
     FM231500 16012G20KT P6SM SCT015 BKN035
      TEMPO 2315/2318 BKN025
     FM231900 18015G25KT P6SM VCSH BKN035 BKN060
     FM240200 19007KT P6SM SCT035 BKN200=

USA.gov is the U.S. government's official web portal to all federal, state and local government web resources and services.